CDT,Max TemperatureF,Mean TemperatureF,Min TemperatureF,Max Dew PointF,MeanDew PointF,Min DewpointF,Max Humidity, Mean Humidity, Min Humidity, Max Sea Level PressureIn, Mean Sea Level PressureIn, Min Sea Level PressureIn, Max VisibilityMiles, Mean VisibilityMiles, Min VisibilityMiles, Max Wind SpeedMPH, Mean Wind SpeedMPH, Max Gust SpeedMPH,PrecipitationIn, CloudCover, Events, WindDirDegrees
2011-10-1,64,48,33,37,35,30,100,63,28,30.36,30.29,30.22,10,10,7,10,4,17,0.00,0,,146
2011-10-2,75,58,42,48,38,34,88,56,24,30.25,30.20,30.14,10,10,5,9,5,,0.00,0,,187
2011-10-3,80,60,41,46,39,30,93,51,17,30.23,30.19,30.15,10,10,10,12,2,16,0.00,0,,157
2011-10-4,82,63,44,39,38,36,81,42,20,30.20,30.15,30.07,10,10,10,17,7,25,0.00,0,,157
2011-10-5,84,70,55,46,43,39,67,43,23,30.13,30.09,30.04,10,10,4,17,8,25,0.00,0,,163
2011-10-6,80,66,53,48,44,39,72,49,24,30.11,30.06,30.01,10,10,5,23,11,33,0.00,0,,155
2011-10-7,82,71,60,57,54,48,72,55,42,30.02,29.98,29.91,10,9,2,29,16,38,0.00,2,,170
2011-10-8,82,72,62,61,54,50,68,53,42,30.14,30.07,29.99,10,10,10,20,13,28,0.00,2,,184
2011-10-9,80,68,55,54,51,48,82,56,32,30.24,30.18,30.13,10,10,10,17,8,25,0.00,1,,159
2011-10-10,73,63,53,57,51,46,100,71,41,30.13,30.03,29.95,10,9,5,17,8,24,0.01,1,Rain,163
2011-10-11,71,61,51,59,53,50,100,80,46,29.95,29.90,29.82,10,6,0,12,6,18,0.01,3,Fog,170
2011-10-12,62,60,57,57,55,52,100,87,72,29.81,29.74,29.66,10,8,4,14,7,17,0.28,5,Rain-Thunderstorm,147
2011-10-13,59,54,48,55,49,43,100,86,55,29.69,29.67,29.65,10,8,2,15,7,24,0.00,3,Rain,300
2011-10-14,55,50,44,45,42,37,93,76,54,29.82,29.73,29.66,10,10,10,22,10,33,0.00,6,,298
2011-10-15,59,49,39,41,38,34,93,68,41,29.94,29.88,29.83,10,10,10,16,8,24,0.00,1,,286
2011-10-16,57,50,42,43,36,27,93,66,33,29.92,29.88,29.82,10,10,10,20,6,32,0.00,2,Rain,295
2011-10-17,55,45,35,34,30,25,81,57,31,29.93,29.90,29.86,10,10,7,21,8,28,0.00,0,,286
2011-10-18,44,38,33,34,31,28,87,72,57,30.02,29.95,29.87,10,10,10,14,8,21,0.00,5,,318
2011-10-19,44,40,37,36,33,30,87,73,61,30.06,30.02,29.99,10,10,10,20,11,24,0.00,8,,354
2011-10-20,53,42,32,34,29,25,93,68,33,29.99,29.94,29.90,10,10,10,18,9,26,0.00,1,,333
2011-10-21,60,44,28,39,32,27,100,63,34,30.06,30.01,29.98,10,10,5,9,4,,0.00,0,,227
2011-10-22,60,48,37,39,34,28,93,61,29,30.11,30.06,30.01,10,10,10,8,4,,0.00,0,,339
2011-10-23,66,54,42,48,41,32,87,68,40,29.97,29.88,29.77,10,10,5,13,5,29,0.05,3,Rain-Thunderstorm,242
2011-10-24,64,50,35,45,38,34,100,73,32,30.06,30.00,29.96,10,8,0,9,2,,0.00,1,Fog,229
2011-10-25,60,51,42,46,42,34,93,72,47,29.97,29.80,29.72,10,10,10,22,11,28,0.00,3,,58
2011-10-26,50,44,39,37,36,34,93,78,54,30.08,30.04,29.97,10,10,7,12,8,16,0.00,5,,4
2011-10-27,51,42,32,37,32,23,100,72,35,30.09,30.06,30.03,10,8,0,14,3,20,0.00,3,Fog-Rain,294
2011-10-28,53,42,32,32,26,19,100,56,26,30.09,30.05,30.02,10,10,10,14,5,26,0.00,1,,253
2011-10-29,53,40,26,32,23,18,93,52,24,30.07,30.01,29.92,10,10,10,13,4,18,0.00,0,,189
2011-10-30,46,44,42,39,31,23,76,60,40,29.92,29.83,29.77,10,10,10,22,13,29,0.00,5,,249
2011-10-31,51,40,30,36,32,27,100,71,38,30.03,29.99,29.95,10,9,4,10,5,16,0.00,2,,246